Time;durP1;ratioP1;P1;durP2;ratioP2;P2;SDS_P1;SDS_P2;PMS_P1;PMS_P2;Temp;Humidity;BMP_temperature;BMP_pressure;BME280_temperature;BME280_humidity;BME280_pressure;Samples;Min_cycle;Max_cycle;Signal;HPM_P1;HPM_P2
2023/01/24 00:00:05;;;;;;;5.90;3.60;;;;;;;5.62;65.48;95873.59;5063846;28;20028;-80
2023/01/24 00:02:31;;;;;;;4.70;3.35;;;;;;;5.55;65.79;95882.47;5065242;28;20032;-80
2023/01/24 00:04:56;;;;;;;5.72;3.83;;;;;;;5.41;66.13;95876.97;5063821;28;20039;-80
2023/01/24 00:07:22;;;;;;;5.22;3.38;;;;;;;5.36;66.35;95877.31;5063401;28;20025;-79
2023/01/24 00:09:47;;;;;;;5.43;3.60;;;;;;;5.34;66.60;95866.00;5064656;28;20047;-79
2023/01/24 00:12:12;;;;;;;5.72;3.55;;;;;;;5.30;66.84;95874.16;5064168;28;20029;-80
2023/01/24 00:14:38;;;;;;;7.50;4.10;;;;;;;5.28;66.98;95887.41;5064926;28;20426;-79
2023/01/24 00:17:03;;;;;;;5.90;3.88;;;;;;;5.23;67.23;95881.53;5063644;28;20041;-78
2023/01/24 00:19:29;;;;;;;5.97;3.88;;;;;;;5.15;67.36;95879.88;5064890;28;20039;-80
2023/01/24 00:21:54;;;;;;;6.15;4.20;;;;;;;5.20;67.27;95883.03;5063878;28;20025;-78
2023/01/24 00:24:19;;;;;;;6.05;4.03;;;;;;;5.20;67.33;95888.50;5064396;28;20482;-79
2023/01/24 00:26:45;;;;;;;5.93;3.90;;;;;;;5.14;67.11;95894.69;5064184;28;20028;-81
2023/01/24 00:29:10;;;;;;;5.82;3.28;;;;;;;5.15;67.17;95890.78;5064045;28;20025;-78
2023/01/24 00:31:35;;;;;;;6.65;3.80;;;;;;;5.22;67.07;95893.59;5064573;28;20032;-80
2023/01/24 00:34:01;;;;;;;5.55;3.67;;;;;;;5.24;66.80;95889.31;5063691;28;20094;-79
2023/01/24 00:36:26;;;;;;;6.40;4.03;;;;;;;5.31;66.79;95894.81;5064845;28;20029;-79
2023/01/24 00:38:54;;;;;;;6.40;4.15;;;;;;;5.33;66.54;95892.50;5073210;28;20020;-78
2023/01/24 00:41:19;;;;;;;7.18;4.47;;;;;;;5.30;66.68;95892.47;5070627;28;20412;-79
2023/01/24 00:43:45;;;;;;;4.93;3.35;;;;;;;5.39;66.53;95895.66;5068632;28;20108;-80
2023/01/24 00:46:10;;;;;;;6.78;4.10;;;;;;;5.50;66.12;95901.16;5068316;28;20451;-78
2023/01/24 00:48:36;;;;;;;6.10;4.10;;;;;;;5.56;65.95;95900.44;5068618;28;20040;-78
2023/01/24 00:51:01;;;;;;;7.00;3.65;;;;;;;5.53;65.91;95894.94;5068031;28;20028;-78
2023/01/24 00:53:27;;;;;;;6.35;3.67;;;;;;;5.60;65.79;95908.63;5067005;28;20024;-79
2023/01/24 00:55:54;;;;;;;5.95;4.68;;;;;;;5.51;65.86;95900.78;5068005;28;20051;-79
2023/01/24 00:58:20;;;;;;;6.20;4.43;;;;;;;5.60;65.57;95900.44;5069018;28;20143;-78
2023/01/24 01:00:45;;;;;;;5.93;3.90;;;;;;;5.62;65.31;95909.03;5081509;28;20013;-77
2023/01/24 01:03:13;;;;;;;7.15;4.18;;;;;;;5.66;65.36;95898.91;5074331;28;20021;-79
2023/01/24 01:05:39;;;;;;;6.18;3.85;;;;;;;5.60;65.66;95908.63;5067346;28;20071;-79
2023/01/24 01:08:05;;;;;;;5.53;3.92;;;;;;;5.65;65.48;95902.81;5067498;28;20052;-78
2023/01/24 01:10:30;;;;;;;5.53;4.18;;;;;;;5.71;65.29;95903.22;5068088;28;20044;-79
2023/01/24 01:12:56;;;;;;;5.68;3.42;;;;;;;5.63;65.17;95913.31;5067905;28;20044;-79
2023/01/24 01:15:21;;;;;;;6.65;4.45;;;;;;;5.48;65.72;95907.00;5068095;28;20017;-78
2023/01/24 01:17:47;;;;;;;6.35;3.50;;;;;;;5.49;65.97;95907.78;5067086;28;20036;-78
2023/01/24 01:20:12;;;;;;;5.85;3.75;;;;;;;5.58;65.87;95911.75;5068092;28;20027;-79
2023/01/24 01:22:38;;;;;;;7.25;4.47;;;;;;;5.66;65.68;95915.28;5067259;28;20029;-78
2023/01/24 01:25:03;;;;;;;6.93;4.20;;;;;;;5.65;65.53;95904.75;5066049;28;20388;-79
2023/01/24 01:27:28;;;;;;;5.97;3.70;;;;;;;5.69;65.47;95913.75;5067764;28;20099;-79
2023/01/24 01:29:54;;;;;;;6.18;4.22;;;;;;;5.66;65.61;95919.97;5067004;28;20406;-80
2023/01/24 01:32:19;;;;;;;8.98;4.82;;;;;;;5.48;65.57;95906.22;5068994;28;20037;-80
2023/01/24 01:34:45;;;;;;;6.13;4.15;;;;;;;5.46;65.65;95909.31;5073216;28;20025;-80
2023/01/24 01:37:10;;;;;;;7.65;4.03;;;;;;;5.42;65.78;95907.72;5067616;28;20099;-79
2023/01/24 01:39:35;;;;;;;8.45;4.32;;;;;;;5.35;65.81;95910.41;5067397;28;20032;-78
2023/01/24 01:42:01;;;;;;;7.43;4.38;;;;;;;5.37;66.06;95908.88;5068180;28;20029;-79
2023/01/24 01:44:37;;;;;;;7.57;4.65;;;;;;;5.36;65.91;95906.53;5067526;28;20024;-81
2023/01/24 01:47:24;;;;;;;6.25;4.20;;;;;;;5.29;66.22;95910.00;5070411;28;20031;-80
2023/01/24 01:49:54;;;;;;;6.28;3.85;;;;;;;5.36;65.98;95914.72;5063727;28;20087;-79
2023/01/24 01:52:22;;;;;;;6.80;3.95;;;;;;;5.24;65.99;95913.06;5067056;28;20028;-79
2023/01/24 01:54:48;;;;;;;7.32;3.97;;;;;;;5.21;66.19;95906.41;5066257;28;20032;-79
2023/01/24 01:57:23;;;;;;;5.68;3.63;;;;;;;5.23;66.23;95908.78;5066803;28;20075;-79
2023/01/24 01:59:57;;;;;;;6.55;3.65;;;;;;;5.26;66.16;95908.00;5067148;28;20117;-78
2023/01/24 02:02:22;;;;;;;6.93;3.80;;;;;;;5.20;66.53;95913.03;5067715;28;20052;-79
2023/01/24 02:04:52;;;;;;;5.50;3.17;;;;;;;5.23;66.54;95904.09;5066497;28;20125;-78
2023/01/24 02:07:27;;;;;;;5.43;3.50;;;;;;;5.20;66.64;95904.06;5066885;28;20495;-79
2023/01/24 02:09:54;;;;;;;6.25;3.83;;;;;;;5.26;66.14;95903.34;5066188;28;20030;-78
2023/01/24 02:12:32;;;;;;;5.75;3.67;;;;;;;5.30;66.19;95901.44;5066518;28;20044;-78
2023/01/24 02:17:46;;;;;;;6.55;3.17;;;;;;;5.34;65.83;95893.28;5064541;28;20085;-78
2023/01/24 02:20:15;;;;;;;5.57;3.53;;;;;;;5.33;66.00;95886.25;5064981;28;20024;-78
2023/01/24 02:22:50;;;;;;;5.28;3.10;;;;;;;5.39;65.79;95898.38;5066041;28;20071;-78
2023/01/24 02:25:34;;;;;;;5.97;4.07;;;;;;;5.36;65.79;95890.94;5066342;28;20024;-78
2023/01/24 02:28:02;;;;;;;4.43;3.40;;;;;;;5.28;65.80;95892.84;5071718;28;20044;-79
2023/01/24 02:30:27;;;;;;;4.65;3.28;;;;;;;5.29;65.52;95910.00;5066396;28;20032;-78
2023/01/24 02:32:53;;;;;;;5.93;3.50;;;;;;;5.21;65.92;95897.44;5066748;28;20020;-78
2023/01/24 02:35:23;;;;;;;7.15;3.60;;;;;;;5.22;65.74;95893.59;5065750;28;20028;-79
2023/01/24 02:37:48;;;;;;;5.78;3.60;;;;;;;5.22;65.96;95890.88;5066477;28;20459;-79
2023/01/24 02:40:13;;;;;;;5.07;3.40;;;;;;;5.21;66.09;95900.97;5065444;28;20513;-78
2023/01/24 02:42:39;;;;;;;5.13;3.28;;;;;;;5.16;65.94;95890.44;5066671;28;20059;-80
2023/01/24 02:45:18;;;;;;;5.75;3.47;;;;;;;5.13;66.36;95899.34;5065628;28;20047;-79
2023/01/24 02:47:46;;;;;;;4.95;3.67;;;;;;;5.13;66.19;95907.53;5064279;28;20067;-79
2023/01/24 02:50:12;;;;;;;5.00;2.95;;;;;;;5.17;65.96;95907.56;5066062;28;20033;-78
2023/01/24 02:55:22;;;;;;;5.90;3.92;;;;;;;5.04;66.39;95898.88;5066747;28;20043;-80
2023/01/24 02:58:06;;;;;;;6.57;3.70;;;;;;;5.04;66.36;95904.34;5065759;28;20024;-80
2023/01/24 03:00:41;;;;;;;;;;;;;;;4.99;66.56;95900.03;5065472;28;20047;-77
2023/01/24 03:03:08;;;;;;;4.72;2.83;;;;;;;4.88;66.93;95896.44;5066082;28;19912;-80
2023/01/24 03:05:56;;;;;;;5.68;3.55;;;;;;;4.89;66.97;95889.81;5063551;28;20483;-80
2023/01/24 03:08:25;;;;;;;5.18;3.75;;;;;;;4.75;67.31;95887.75;5065365;28;20558;-79
2023/01/24 03:10:51;;;;;;;5.22;3.65;;;;;;;4.66;67.57;95892.75;5065040;28;20044;-80
2023/01/24 03:35:08;;;;;;;;;;;;;;;4.53;67.57;95896.91;5065415;28;20039;-80
2023/01/24 03:40:17;;;;;;;;;;;;;;;4.55;67.41;95885.63;5065386;28;20036;-80
2023/01/24 03:42:48;;;;;;;3.97;2.80;;;;;;;4.48;67.45;95887.13;5065732;28;19912;-79
2023/01/24 03:45:19;;;;;;;4.25;3.22;;;;;;;4.57;67.42;95894.19;5064583;28;20024;-79
2023/01/24 03:47:54;;;;;;;4.63;2.85;;;;;;;4.63;67.02;95890.75;5064897;28;20078;-78
2023/01/24 03:53:07;;;;;;;5.00;2.85;;;;;;;4.78;66.37;95883.50;5062953;28;20031;-80
2023/01/24 03:55:32;;;;;;;4.13;3.05;;;;;;;4.81;66.21;95882.72;5065215;28;20029;-79
2023/01/24 03:57:58;;;;;;;4.57;3.17;;;;;;;4.83;65.93;95885.09;5069188;28;20457;-78
2023/01/24 04:00:23;;;;;;;4.53;3.03;;;;;;;4.88;65.66;95877.38;5066061;28;20577;-78
2023/01/24 04:02:49;;;;;;;4.55;3.53;;;;;;;4.90;65.17;95882.44;5064919;28;20112;-79
2023/01/24 04:05:15;;;;;;;3.97;2.88;;;;;;;4.85;65.47;95877.31;5064084;28;20520;-80
2023/01/24 04:07:40;;;;;;;4.57;3.10;;;;;;;4.86;65.55;95873.44;5063631;28;20474;-80
2023/01/24 04:10:07;;;;;;;6.20;3.08;;;;;;;4.86;65.45;95874.22;5063721;28;20086;-79
2023/01/24 04:12:32;;;;;;;4.55;3.10;;;;;;;4.91;65.36;95870.38;5066957;28;20035;-79
2023/01/24 04:14:57;;;;;;;4.05;3.08;;;;;;;4.92;65.30;95878.16;5068742;28;20021;-79
2023/01/24 04:17:23;;;;;;;5.07;3.35;;;;;;;5.00;65.02;95877.06;5075157;28;20044;-78
2023/01/24 04:19:48;;;;;;;4.20;3.10;;;;;;;4.98;64.88;95873.13;5069458;28;20082;-79
2023/01/24 04:22:15;;;;;;;4.32;2.85;;;;;;;4.93;65.19;95882.47;5067865;28;20099;-80
2023/01/24 04:24:41;;;;;;;4.65;3.47;;;;;;;4.88;65.23;95882.03;5069152;28;20040;-78
2023/01/24 04:27:07;;;;;;;4.88;3.30;;;;;;;4.71;65.73;95880.72;5066523;28;20112;-79
2023/01/24 04:29:32;;;;;;;4.93;3.45;;;;;;;4.76;65.57;95874.94;5051089;28;20119;-78
2023/01/24 04:31:58;;;;;;;4.43;3.55;;;;;;;4.80;65.25;95876.50;5066352;28;20024;-79
2023/01/24 04:34:23;;;;;;;4.72;3.35;;;;;;;4.71;65.48;95867.88;5068640;28;20032;-77
2023/01/24 04:36:48;;;;;;;5.55;3.75;;;;;;;4.74;65.39;95871.78;5066415;28;20032;-78
2023/01/24 04:39:14;;;;;;;4.90;3.60;;;;;;;4.75;65.48;95873.34;5068494;28;20013;-78
2023/01/24 04:41:39;;;;;;;8.60;3.97;;;;;;;4.80;65.46;95886.63;5068365;28;20511;-78
2023/01/24 04:44:06;;;;;;;7.72;4.45;;;;;;;4.73;65.41;95884.63;5067719;28;20044;-77
2023/01/24 04:46:31;;;;;;;7.45;3.83;;;;;;;4.75;65.47;95885.03;5066785;28;20074;-77
2023/01/24 04:48:57;;;;;;;5.50;3.70;;;;;;;4.77;65.22;95882.72;5067328;28;20442;-78
2023/01/24 04:51:22;;;;;;;5.72;3.53;;;;;;;4.77;65.33;95884.66;5068096;28;20107;-78
2023/01/24 04:53:48;;;;;;;7.68;3.03;;;;;;;4.73;65.29;95884.63;5067213;28;20032;-78
2023/01/24 04:56:13;;;;;;;4.20;3.17;;;;;;;4.67;65.38;95874.44;5067908;28;20036;-77
2023/01/24 04:58:38;;;;;;;5.30;3.10;;;;;;;4.57;65.80;95894.19;5067441;28;20044;-76
2023/01/24 05:01:04;;;;;;;4.30;2.78;;;;;;;4.38;66.13;95882.34;5067962;28;20032;-76
2023/01/24 05:03:29;;;;;;;4.53;2.88;;;;;;;4.45;66.18;95887.88;5068362;28;20138;-78
2023/01/24 05:05:55;;;;;;;4.22;2.70;;;;;;;4.41;66.00;95884.31;5067026;28;20047;-76
2023/01/24 05:08:21;;;;;;;4.65;3.08;;;;;;;4.32;66.25;95896.69;5068420;28;20066;-78
2023/01/24 05:10:47;;;;;;;4.13;3.00;;;;;;;4.39;66.22;95897.53;5066160;28;20040;-78
2023/01/24 05:13:12;;;;;;;3.60;2.60;;;;;;;4.52;65.88;95898.03;5072034;28;20028;-78
2023/01/24 05:15:38;;;;;;;3.97;2.28;;;;;;;4.58;65.52;95901.97;5067517;28;20031;-78
2023/01/24 05:18:04;;;;;;;3.42;2.28;;;;;;;4.48;65.54;95908.91;5067459;28;20114;-78
2023/01/24 05:20:30;;;;;;;3.90;2.35;;;;;;;4.42;65.63;95909.63;5067302;28;20123;-78
2023/01/24 05:22:56;;;;;;;4.10;2.28;;;;;;;4.35;65.93;95917.69;5066949;28;20219;-77
2023/01/24 05:25:22;;;;;;;3.75;2.47;;;;;;;4.41;65.94;95929.81;5066599;28;20469;-78
2023/01/24 05:27:47;;;;;;;4.18;2.20;;;;;;;4.44;65.77;95932.59;5065100;28;20021;-77
2023/01/24 05:30:13;;;;;;;4.43;2.42;;;;;;;4.47;65.50;95942.75;5067456;28;20482;-78
2023/01/24 05:32:38;;;;;;;3.95;2.30;;;;;;;4.46;65.21;95943.88;5067045;28;20036;-77
2023/01/24 05:35:04;;;;;;;3.80;2.20;;;;;;;4.53;65.44;95952.16;5067897;28;20414;-78
2023/01/24 05:37:30;;;;;;;5.65;2.63;;;;;;;4.58;65.22;95951.00;5066862;28;20020;-78
2023/01/24 05:39:55;;;;;;;4.20;2.28;;;;;;;4.58;65.43;95945.56;5067242;28;20507;-78
2023/01/24 05:42:21;;;;;;;3.70;2.45;;;;;;;4.62;65.02;95946.38;5067214;28;20021;-77
2023/01/24 05:44:46;;;;;;;3.67;2.65;;;;;;;4.62;65.13;95946.38;5067303;28;20099;-80
2023/01/24 05:47:12;;;;;;;4.32;2.85;;;;;;;4.62;65.36;95948.31;5070107;28;20061;-77
2023/01/24 05:49:37;;;;;;;5.00;3.08;;;;;;;4.54;65.53;95942.03;5066966;28;20029;-78
2023/01/24 05:52:02;;;;;;;7.13;3.05;;;;;;;4.57;65.23;95956.84;5067682;28;20032;-78
2023/01/24 05:54:28;;;;;;;6.80;3.67;;;;;;;4.57;65.31;95965.78;5066564;28;20029;-78
2023/01/24 05:56:53;;;;;;;4.30;3.15;;;;;;;4.58;65.22;95964.63;5067313;28;20035;-78
2023/01/24 05:59:19;;;;;;;6.85;3.25;;;;;;;4.62;65.16;95965.44;5066627;28;20479;-78
2023/01/24 06:01:44;;;;;;;4.53;2.88;;;;;;;4.57;65.04;95965.78;5065051;28;20035;-78
2023/01/24 06:04:10;;;;;;;5.05;3.35;;;;;;;4.46;65.47;95964.88;5066611;28;20599;-77
2023/01/24 06:06:35;;;;;;;5.65;3.20;;;;;;;4.50;65.39;95968.44;5072640;28;20491;-78
2023/01/24 06:09:00;;;;;;;6.55;2.97;;;;;;;4.49;65.64;95977.78;5066525;28;20021;-78
2023/01/24 06:11:27;;;;;;;4.93;3.60;;;;;;;4.50;65.53;95976.59;5066008;28;20865;-79
2023/01/24 06:13:55;;;;;;;5.78;3.63;;;;;;;4.54;65.34;95982.88;5067228;28;20024;-78
2023/01/24 06:16:23;;;;;;;4.00;3.45;;;;;;;4.58;65.19;95993.78;5065940;28;20039;-77
2023/01/24 06:18:49;;;;;;;5.80;3.75;;;;;;;4.57;65.41;95984.06;5066620;28;20040;-80
2023/01/24 06:21:24;;;;;;;4.95;3.50;;;;;;;4.51;65.45;95978.16;5048265;28;20481;-77
2023/01/24 06:23:50;;;;;;;6.05;3.95;;;;;;;4.62;65.09;95987.25;5065916;28;20028;-79
2023/01/24 06:26:16;;;;;;;7.00;4.20;;;;;;;4.67;65.12;95994.31;5066656;28;20032;-79
2023/01/24 06:28:41;;;;;;;7.53;4.53;;;;;;;4.68;65.16;95980.31;5065432;28;20025;-80
2023/01/24 06:31:33;;;;;;;5.78;3.75;;;;;;;4.74;65.35;95989.69;5066492;28;20052;-77
2023/01/24 06:34:17;;;;;;;6.53;4.22;;;;;;;4.71;65.08;95993.19;5066265;28;20032;-77
2023/01/24 06:36:48;;;;;;;;;;;;;;;4.65;65.72;96004.78;5064760;28;20040;-77
2023/01/24 06:39:15;;;;;;;4.93;3.35;;;;;;;4.55;65.95;96006.22;5066151;28;19938;-78
2023/01/24 06:41:42;;;;;;;6.15;4.15;;;;;;;4.49;66.54;96011.22;5065388;28;20032;-77
2023/01/24 06:44:10;;;;;;;7.90;4.28;;;;;;;4.52;67.03;96006.97;5066413;28;20032;-76
2023/01/24 06:46:36;;;;;;;5.35;3.88;;;;;;;4.44;66.67;96008.81;5064099;28;20120;-79
2023/01/24 06:49:01;;;;;;;4.68;3.97;;;;;;;4.48;66.70;96015.09;5065809;28;20107;-79
2023/01/24 06:51:26;;;;;;;6.18;4.88;;;;;;;4.55;66.91;96017.13;5065496;28;20475;-79
2023/01/24 06:53:52;;;;;;;8.98;4.13;;;;;;;4.61;66.53;96020.31;5065070;28;20385;-79
2023/01/24 06:56:17;;;;;;;5.57;4.22;;;;;;;4.62;66.31;96016.41;5064284;28;20039;-80
2023/01/24 06:58:43;;;;;;;4.93;3.75;;;;;;;4.62;66.00;96021.88;5065269;28;20029;-78
2023/01/24 07:01:08;;;;;;;8.27;4.60;;;;;;;4.62;65.80;96033.53;5071232;28;20052;-79
2023/01/24 07:03:33;;;;;;;7.10;4.55;;;;;;;4.71;64.17;96030.53;5066626;28;20104;-79
2023/01/24 07:05:59;;;;;;;7.55;5.97;;;;;;;4.63;62.53;96026.94;5065575;28;20029;-79
2023/01/24 07:08:24;;;;;;;7.20;5.22;;;;;;;4.56;62.34;96035.03;5062802;28;20144;-79
2023/01/24 07:10:50;;;;;;;6.53;3.90;;;;;;;4.54;62.65;96037.34;5064766;28;20116;-80
2023/01/24 07:13:15;;;;;;;7.15;3.53;;;;;;;4.49;62.19;96034.94;5066136;28;20162;-79
2023/01/24 07:15:41;;;;;;;7.13;3.50;;;;;;;4.45;62.50;96045.78;5062434;28;20037;-81
2023/01/24 07:18:07;;;;;;;8.68;3.92;;;;;;;4.39;61.68;96041.03;5065288;28;20188;-79
2023/01/24 07:20:33;;;;;;;6.97;3.38;;;;;;;4.36;61.97;96044.50;5064835;28;20017;-80
2023/01/24 07:22:59;;;;;;;7.00;3.72;;;;;;;4.34;62.39;96044.88;5065710;28;20028;-79
2023/01/24 07:25:26;;;;;;;6.60;3.75;;;;;;;4.34;62.48;96035.91;5064813;28;20115;-79
2023/01/24 07:27:52;;;;;;;5.95;3.83;;;;;;;4.32;62.25;96044.47;5063653;28;20035;-79
2023/01/24 07:30:17;;;;;;;6.97;3.45;;;;;;;4.34;62.49;96038.63;5064891;28;20402;-78
2023/01/24 07:32:42;;;;;;;6.65;3.35;;;;;;;4.38;62.41;96051.16;5064522;28;20032;-80
2023/01/24 07:35:08;;;;;;;5.90;3.90;;;;;;;4.41;62.25;96047.66;5065390;28;20024;-80
2023/01/24 07:37:34;;;;;;;9.32;4.05;;;;;;;4.39;62.42;96051.94;5064136;28;20075;-81
2023/01/24 07:39:59;;;;;;;9.02;5.28;;;;;;;4.42;62.42;96052.00;5064257;28;20040;-78
2023/01/24 07:42:25;;;;;;;10.70;5.63;;;;;;;4.46;62.56;96058.25;5064599;28;20036;-79
2023/01/24 07:44:50;;;;;;;11.50;8.63;;;;;;;4.47;62.37;96056.31;5065351;28;20047;-79
2023/01/24 07:47:16;;;;;;;16.55;10.05;;;;;;;4.54;61.91;96067.31;5064528;28;20074;-80
2023/01/24 07:49:41;;;;;;;29.05;17.02;;;;;;;4.55;61.93;96062.63;5064683;28;20032;-79
2023/01/24 07:52:07;;;;;;;26.85;16.92;;;;;;;4.56;61.62;96058.75;5065217;28;20032;-78
2023/01/24 07:54:33;;;;;;;11.80;6.95;;;;;;;4.54;61.18;96067.31;5066879;28;20036;-80
2023/01/24 07:56:59;;;;;;;8.93;5.28;;;;;;;4.46;61.62;96068.34;5073340;28;20424;-80
2023/01/24 07:59:24;;;;;;;7.47;4.03;;;;;;;4.43;61.73;96069.09;5065222;28;20024;-80
2023/01/24 08:01:50;;;;;;;8.43;5.30;;;;;;;4.45;61.74;96069.50;5066514;28;20054;-81
2023/01/24 08:04:15;;;;;;;7.70;4.30;;;;;;;4.46;61.74;96080.03;5063514;28;20036;-80
2023/01/24 08:07:16;;;;;;;9.38;5.47;;;;;;;4.43;61.86;96080.00;5066695;28;20059;-80
2023/01/24 08:09:29;;;;;;;16.42;8.60;;;;;;;4.43;62.07;96077.28;5066733;28;20678;-81
2023/01/24 08:11:56;;;;;;;18.42;11.48;;;;;;;4.49;61.97;96084.75;5064623;28;20505;-80
2023/01/24 08:14:21;;;;;;;13.00;8.00;;;;;;;4.50;61.92;96083.59;5065563;28;20039;-80
2023/01/24 08:16:48;;;;;;;9.73;6.70;;;;;;;4.51;62.17;96079.69;5067019;28;20482;-80
2023/01/24 08:19:14;;;;;;;10.30;6.35;;;;;;;4.53;61.68;96084.81;5065668;28;20029;-80
2023/01/24 08:21:39;;;;;;;9.88;5.63;;;;;;;4.50;62.11;96083.59;5063894;28;20101;-80
2023/01/24 08:24:05;;;;;;;8.60;5.97;;;;;;;4.50;62.21;96078.16;5065209;28;20111;-80
2023/01/24 08:26:30;;;;;;;7.55;5.55;;;;;;;4.52;62.29;96085.94;5063974;28;20056;-79
2023/01/24 08:28:56;;;;;;;8.00;4.97;;;;;;;4.52;62.54;96083.22;5064477;28;20100;-80
2023/01/24 08:31:21;;;;;;;7.85;5.05;;;;;;;4.64;62.37;96082.97;5066152;28;20355;-81
2023/01/24 08:33:46;;;;;;;8.13;4.78;;;;;;;4.67;62.50;96087.69;5064423;28;20028;-81
2023/01/24 08:36:12;;;;;;;7.90;4.55;;;;;;;4.74;62.44;96092.44;5065224;28;20403;-80
2023/01/24 08:38:37;;;;;;;8.43;4.95;;;;;;;4.80;62.61;96093.69;5064279;28;20103;-80
2023/01/24 08:41:04;;;;;;;7.30;4.78;;;;;;;4.88;63.33;96092.63;5064498;28;20483;-80
2023/01/24 08:43:29;;;;;;;6.30;3.95;;;;;;;4.86;63.84;96084.00;5064250;28;20064;-79
2023/01/24 08:45:57;;;;;;;5.88;4.07;;;;;;;4.94;64.15;96088.41;5064265;28;20225;-78
2023/01/24 08:48:23;;;;;;;7.57;4.20;;;;;;;4.92;64.13;96077.06;5063624;28;20021;-77
2023/01/24 08:50:48;;;;;;;5.18;3.72;;;;;;;4.95;64.03;96081.78;5073414;28;20107;-80
2023/01/24 08:53:14;;;;;;;5.25;4.03;;;;;;;4.97;64.32;96082.19;5066131;28;20035;-80
2023/01/24 08:55:40;;;;;;;6.10;3.75;;;;;;;4.95;63.53;96084.53;5064339;28;20097;-79
2023/01/24 08:58:06;;;;;;;5.40;3.45;;;;;;;4.87;64.10;96071.16;5064778;28;20445;-79
2023/01/24 09:00:31;;;;;;;6.53;4.13;;;;;;;5.02;64.29;96083.81;5066383;28;20041;-79
2023/01/24 09:03:00;;;;;;;7.93;4.43;;;;;;;4.99;64.00;96088.06;5067805;28;20040;-80
2023/01/24 09:05:27;;;;;;;5.50;3.50;;;;;;;5.03;63.84;96083.44;5067980;28;20044;-80
2023/01/24 09:07:52;;;;;;;7.25;4.55;;;;;;;5.02;64.04;96084.59;5067484;28;20081;-79
2023/01/24 09:10:18;;;;;;;6.05;3.70;;;;;;;5.13;64.77;96083.94;5068002;28;20029;-80
2023/01/24 09:12:43;;;;;;;5.97;3.78;;;;;;;5.12;63.19;96079.63;5067576;28;20025;-78
2023/01/24 09:15:09;;;;;;;6.13;3.60;;;;;;;5.09;63.87;96080.38;5067051;28;20020;-78
2023/01/24 09:17:34;;;;;;;5.18;3.70;;;;;;;5.10;63.67;96081.94;5067164;28;20502;-78
2023/01/24 09:20:00;;;;;;;6.00;3.53;;;;;;;5.12;63.31;96085.09;5067730;28;20024;-80
2023/01/24 09:22:26;;;;;;;5.20;3.55;;;;;;;5.18;62.92;96080.88;5069110;28;20012;-79
2023/01/24 09:24:52;;;;;;;7.47;4.47;;;;;;;5.22;63.16;96090.66;5067176;28;20033;-80
2023/01/24 09:27:17;;;;;;;9.25;5.45;;;;;;;5.30;62.98;96091.50;5067729;28;20444;-79
2023/01/24 09:29:42;;;;;;;12.75;8.30;;;;;;;5.41;61.96;96088.88;5066753;28;20134;-78
2023/01/24 09:32:08;;;;;;;13.38;8.20;;;;;;;5.46;60.74;96086.59;5067795;28;20086;-79
2023/01/24 09:34:33;;;;;;;12.13;8.40;;;;;;;5.49;60.07;96087.78;5067038;28;20104;-80
2023/01/24 09:36:59;;;;;;;11.68;8.27;;;;;;;5.47;60.39;96079.97;5067848;28;20037;-78
2023/01/24 09:39:24;;;;;;;12.27;7.28;;;;;;;5.45;60.16;96087.75;5067379;28;20020;-79
2023/01/24 09:41:59;;;;;;;9.05;6.50;;;;;;;5.46;60.01;96081.16;5066874;28;20501;-79
2023/01/24 09:44:46;;;;;;;9.35;5.45;;;;;;;5.44;59.63;96075.25;5072065;28;20021;-78
2023/01/24 09:47:21;;;;;;;8.80;5.53;;;;;;;5.45;59.88;96078.78;5066534;28;20063;-78
2023/01/24 09:49:50;;;;;;;7.70;5.93;;;;;;;5.45;59.74;96084.22;5067548;28;20497;-79
2023/01/24 09:52:26;;;;;;;8.18;5.30;;;;;;;5.46;59.59;96081.16;5067034;28;20469;-79
2023/01/24 09:55:17;;;;;;;8.52;4.68;;;;;;;5.45;59.51;96085.03;5066733;28;20039;-79
2023/01/24 09:58:08;;;;;;;6.57;4.50;;;;;;;5.43;60.26;96076.44;5067135;28;20074;-80
2023/01/24 10:00:37;;;;;;;6.63;3.90;;;;;;;5.49;59.78;96076.88;5065058;28;20104;-79
2023/01/24 10:03:03;;;;;;;7.05;4.15;;;;;;;5.42;59.49;96066.69;5067127;28;20035;-78
2023/01/24 10:05:39;;;;;;;6.68;4.28;;;;;;;5.44;60.19;96067.09;5065393;28;20028;-80
2023/01/24 10:08:13;;;;;;;8.20;5.22;;;;;;;5.50;60.70;96062.84;5065429;28;20082;-80
2023/01/24 10:10:43;;;;;;;9.95;5.78;;;;;;;5.62;61.02;96077.38;5065465;28;20043;-79
2023/01/24 10:14:17;;;;;;;5.13;3.78;;;;;;;5.61;60.82;96065.66;5064648;28;20489;-79
2023/01/24 10:16:50;;;;;;;4.13;2.53;;;;;;;5.41;60.79;96058.88;5023227;28;20127;-80
2023/01/24 10:19:37;;;;;;;4.85;3.55;;;;;;;5.34;61.76;96059.59;5024706;28;20048;-80
2023/01/24 10:22:30;;;;;;;5.18;3.30;;;;;;;5.26;62.31;96052.50;5051745;28;20133;-80
2023/01/24 10:25:30;;;;;;;4.55;2.80;;;;;;;5.02;61.63;96057.34;5066097;28;20043;-79
2023/01/24 10:27:58;;;;;;;4.75;3.20;;;;;;;4.93;62.21;96048.69;5067088;28;20071;-80
2023/01/24 10:30:41;;;;;;;4.15;3.03;;;;;;;4.86;62.58;96050.53;5065219;28;20058;-79
2023/01/24 10:33:15;;;;;;;3.85;2.75;;;;;;;4.90;62.98;96051.38;5067918;28;20028;-79
2023/01/24 10:36:10;;;;;;;3.47;2.28;;;;;;;4.86;62.34;96045.88;5065187;28;20025;-80
2023/01/24 10:38:35;;;;;;;4.32;2.20;;;;;;;4.90;62.27;96040.47;5068327;28;20051;-79
2023/01/24 10:41:23;;;;;;;3.42;2.60;;;;;;;4.94;62.46;96042.09;5066595;28;20021;-76
2023/01/24 10:43:54;;;;;;;4.72;2.85;;;;;;;4.91;62.57;96042.03;5064890;28;20477;-79
2023/01/24 10:46:31;;;;;;;3.83;2.92;;;;;;;4.98;62.47;96034.72;5064675;28;20029;-78
2023/01/24 10:48:58;;;;;;;5.10;3.20;;;;;;;5.04;62.34;96038.66;5064917;28;20031;-78
2023/01/24 10:51:24;;;;;;;3.03;2.15;;;;;;;4.88;61.72;96038.13;5047028;28;20461;-78
2023/01/24 10:53:50;;;;;;;3.13;2.35;;;;;;;4.80;62.17;96031.00;5066542;28;20032;-77
2023/01/24 10:56:18;;;;;;;2.40;1.88;;;;;;;4.77;62.64;96037.22;5065215;28;20099;-80
2023/01/24 10:58:56;;;;;;;3.30;2.08;;;;;;;4.79;62.71;96043.84;5066118;28;20029;-77
2023/01/24 11:01:24;;;;;;;2.53;1.58;;;;;;;4.86;62.30;96034.19;5064364;28;20058;-79
2023/01/24 11:03:51;;;;;;;2.67;1.63;;;;;;;4.84;62.48;96031.84;5064152;28;20061;-81
2023/01/24 11:06:24;;;;;;;4.63;2.35;;;;;;;4.86;62.77;96023.28;5064771;28;20100;-81
2023/01/24 11:08:55;;;;;;;3.15;2.20;;;;;;;4.91;63.06;96022.97;5065026;28;20036;-76
2023/01/24 11:11:30;;;;;;;2.80;1.80;;;;;;;4.87;62.20;96025.63;5065576;28;20390;-78
2023/01/24 11:13:59;;;;;;;2.67;1.73;;;;;;;4.83;62.13;96024.84;5063999;28;20032;-78
2023/01/24 11:16:48;;;;;;;2.75;1.70;;;;;;;4.72;62.32;96021.22;5063750;28;20029;-78
2023/01/24 11:19:28;;;;;;;2.35;1.40;;;;;;;4.60;62.47;96016.78;5064680;28;20044;-79
2023/01/24 11:21:56;;;;;;;2.35;1.65;;;;;;;4.49;62.89;96022.13;5064001;28;20048;-76
2023/01/24 11:24:22;;;;;;;2.92;1.73;;;;;;;4.46;63.32;96016.63;5065647;28;20131;-76
2023/01/24 11:26:53;;;;;;;3.80;2.70;;;;;;;4.52;63.49;96024.09;5065138;28;20029;-77
2023/01/24 11:29:18;;;;;;;3.13;2.15;;;;;;;4.53;63.74;96012.06;5065231;28;20029;-75
2023/01/24 11:31:50;;;;;;;3.50;2.20;;;;;;;4.58;63.42;96010.91;5064980;28;20081;-76
2023/01/24 11:34:27;;;;;;;2.67;1.75;;;;;;;4.74;63.11;96014.22;5067002;28;20440;-77
2023/01/24 11:37:04;;;;;;;4.60;2.50;;;;;;;4.69;62.59;96014.56;5065424;28;20020;-77
2023/01/24 11:39:41;;;;;;;3.45;2.20;;;;;;;4.68;62.44;96014.94;5064387;28;20032;-76
2023/01/24 11:42:58;;;;;;;3.35;2.08;;;;;;;4.76;62.96;96011.94;5063554;28;20506;-76
2023/01/24 11:45:23;;;;;;;4.22;2.20;;;;;;;4.74;62.14;96011.50;5054876;28;20052;-76
2023/01/24 11:48:08;;;;;;;3.78;2.38;;;;;;;4.70;62.15;96004.44;5063968;28;20020;-75
2023/01/24 11:51:02;;;;;;;1.98;1.27;;;;;;;4.56;62.01;96012.47;5063369;28;20024;-77
2023/01/24 11:53:33;;;;;;;4.90;1.20;;;;;;;4.43;61.71;96015.44;5061905;28;20078;-76
2023/01/24 11:56:04;;;;;;;1.80;1.20;;;;;;;4.20;62.30;96004.66;5061443;28;20132;-76
2023/01/24 11:58:32;;;;;;;1.95;1.05;;;;;;;4.02;62.65;96008.31;5062328;28;20225;-77
2023/01/24 12:01:26;;;;;;;2.03;1.50;;;;;;;4.13;63.37;96007.28;5061544;28;20400;-75
2023/01/24 12:03:54;;;;;;;;;;;;;;;4.34;63.40;96008.69;5062734;28;20105;-75
2023/01/24 12:06:41;;;;;;;3.65;2.08;;;;;;;4.38;63.74;96001.34;5062076;28;19913;-76
2023/01/24 12:09:13;;;;;;;5.57;3.40;;;;;;;4.48;63.23;96004.22;5044538;28;20025;-76
2023/01/24 12:11:56;;;;;;;4.70;3.00;;;;;;;4.60;62.96;96007.84;5045434;28;20051;-75
2023/01/24 12:14:40;;;;;;;3.42;2.60;;;;;;;4.68;62.39;95995.88;5061696;28;20060;-75
2023/01/24 12:17:36;;;;;;;2.95;2.03;;;;;;;4.76;62.26;96005.69;5061588;28;20040;-76
2023/01/24 12:20:23;;;;;;;3.67;3.05;;;;;;;4.80;62.86;95999.09;5062187;28;20040;-76
2023/01/24 12:22:49;;;;;;;4.55;2.35;;;;;;;4.86;62.13;96010.44;5061592;28;20070;-76